Time;durP1;ratioP1;P1;durP2;ratioP2;P2;SDS_P1;SDS_P2;PMS_P1;PMS_P2;Temp;Humidity;BMP_temperature;BMP_pressure;BME280_temperature;BME280_humidity;BME280_pressure;Samples;Min_cycle;Max_cycle;Signal;HPM_P1;HPM_P2
2022/08/24 00:01:12;;;;;;;6.10;2.30;;;;;;;;;;4999393;28;20690;-78
2022/08/24 00:03:39;;;;;;;4.55;2.40;;;;;;;;;;4998013;28;20120;-78
2022/08/24 00:06:07;;;;;;;2.55;2.30;;;;;;;;;;4999977;28;20475;-76
2022/08/24 00:08:33;;;;;;;3.38;2.30;;;;;;;;;;4998805;28;20504;-76
2022/08/24 00:10:59;;;;;;;3.15;2.35;;;;;;;;;;5006027;28;20129;-75
2022/08/24 00:13:26;;;;;;;3.95;2.65;;;;;;;;;;5004774;28;20041;-76
2022/08/24 00:15:52;;;;;;;2.95;2.53;;;;;;;;;;4984846;28;20491;-76
2022/08/24 00:18:19;;;;;;;4.45;2.22;;;;;;;;;;5003110;28;20030;-76
2022/08/24 00:20:47;;;;;;;4.68;2.30;;;;;;;;;;5002178;28;20054;-76
2022/08/24 00:23:13;;;;;;;5.20;2.58;;;;;;;;;;5002455;28;20022;-76
2022/08/24 00:25:41;;;;;;;3.30;2.40;;;;;;;;;;5004369;28;20045;-75
2022/08/24 00:28:07;;;;;;;5.25;2.75;;;;;;;;;;5002203;28;20109;-76
2022/08/24 00:30:34;;;;;;;2.90;2.30;;;;;;;;;;5004850;28;20117;-76
2022/08/24 00:33:00;;;;;;;4.80;2.30;;;;;;;;;;5000967;28;20541;-76
2022/08/24 00:35:26;;;;;;;3.30;2.47;;;;;;;;;;5006883;28;20113;-76
2022/08/24 00:37:53;;;;;;;3.22;2.53;;;;;;;;;;5001819;28;20028;-76
2022/08/24 00:40:22;;;;;;;6.00;2.80;;;;;;;;;;5003214;28;20552;-76
2022/08/24 00:42:49;;;;;;;3.17;2.28;;;;;;;;;;5001209;28;20108;-76
2022/08/24 00:45:16;;;;;;;5.35;2.85;;;;;;;;;;4997522;28;20022;-76
2022/08/24 00:47:55;;;;;;;3.42;2.45;;;;;;;;;;4997880;28;20029;-82
2022/08/24 00:50:47;;;;;;;3.63;2.42;;;;;;;;;;4998496;28;20125;-76
2022/08/24 00:53:24;;;;;;;2.70;2.13;;;;;;;;;;4991083;28;20077;-76
2022/08/24 00:55:52;;;;;;;3.05;2.20;;;;;;;;;;4989650;28;20041;-76
2022/08/24 00:58:21;;;;;;;3.45;2.33;;;;;;;;;;4983782;28;20722;-76
2022/08/24 01:00:49;;;;;;;5.88;2.65;;;;;;;;;;4992199;28;20026;-76
2022/08/24 01:03:15;;;;;;;3.10;2.28;;;;;;;;;;4993148;28;20101;-76
2022/08/24 01:05:43;;;;;;;5.45;2.50;;;;;;;;;;4979288;28;20040;-76
2022/08/24 01:08:10;;;;;;;4.70;2.38;;;;;;;;;;4997041;28;20060;-76
2022/08/24 01:10:39;;;;;;;3.25;2.40;;;;;;;;;;4994329;28;20116;-76
2022/08/24 01:13:07;;;;;;;3.63;2.60;;;;;;;;;;4992933;28;20021;-76
2022/08/24 01:15:36;;;;;;;4.10;2.28;;;;;;;;;;4990462;28;20509;-76
2022/08/24 01:20:50;;;;;;;2.47;2.20;;;;;;;;;;4990396;28;20529;-76
2022/08/24 01:23:28;;;;;;;4.80;2.20;;;;;;;;;;4994303;28;20382;-77
2022/08/24 01:25:54;;;;;;;3.92;2.50;;;;;;;;;;4989309;28;20489;-76
2022/08/24 01:28:21;;;;;;;6.15;2.85;;;;;;;;;;4994285;28;20114;-76
2022/08/24 01:30:47;;;;;;;6.15;2.40;;;;;;;;;;4986403;28;20038;-76
2022/08/24 01:33:24;;;;;;;4.75;2.40;;;;;;;;;;4986267;28;20129;-76
2022/08/24 01:35:54;;;;;;;4.43;2.42;;;;;;;;;;4991508;28;20030;-76
2022/08/24 01:38:20;;;;;;;2.78;1.95;;;;;;;;;;4991534;28;20018;-76
2022/08/24 01:40:49;;;;;;;3.85;2.45;;;;;;;;;;4994140;28;20064;-76
2022/08/24 01:43:16;;;;;;;4.18;2.65;;;;;;;;;;4997465;28;20029;-76
2022/08/24 01:45:43;;;;;;;5.80;2.70;;;;;;;;;;4995736;28;20037;-77
2022/08/24 01:48:09;;;;;;;5.43;2.30;;;;;;;;;;4992743;28;20026;-77
2022/08/24 01:50:35;;;;;;;4.60;2.25;;;;;;;;;;4992245;28;20095;-77
2022/08/24 01:53:03;;;;;;;5.70;2.50;;;;;;;;;;4988362;28;20080;-76
2022/08/24 01:55:29;;;;;;;3.13;2.40;;;;;;;;;;4992986;28;20076;-76
2022/08/24 01:57:56;;;;;;;4.85;2.33;;;;;;;;;;4981322;28;20033;-76
2022/08/24 02:00:23;;;;;;;4.05;2.53;;;;;;;;;;4997577;28;20038;-76
2022/08/24 02:02:49;;;;;;;2.38;2.10;;;;;;;;;;4990213;28;20026;-76
2022/08/24 02:05:16;;;;;;;4.47;2.22;;;;;;;;;;4990501;28;20084;-76
2022/08/24 02:07:42;;;;;;;3.28;2.33;;;;;;;;;;4991552;28;20045;-76
2022/08/24 02:10:10;;;;;;;5.05;2.53;;;;;;;;;;4991781;28;20150;-76
2022/08/24 02:12:37;;;;;;;5.97;2.70;;;;;;;;;;4980064;28;20021;-76
2022/08/24 02:15:05;;;;;;;7.75;2.20;;;;;;;;;;4991316;28;20109;-76
2022/08/24 02:17:31;;;;;;;3.13;2.20;;;;;;;;;;4991330;28;20657;-76
2022/08/24 02:19:57;;;;;;;4.60;2.33;;;;;;;;;;4989979;28;20127;-77
2022/08/24 02:22:23;;;;;;;3.58;2.70;;;;;;;;;;4990311;28;20030;-76
2022/08/24 02:24:49;;;;;;;4.07;2.40;;;;;;;;;;4991941;28;20029;-76
2022/08/24 02:27:16;;;;;;;5.07;2.38;;;;;;;;;;4988368;28;20027;-76
2022/08/24 02:29:42;;;;;;;2.83;2.00;;;;;;;;;;4989484;28;20493;-76
2022/08/24 02:32:09;;;;;;;3.95;2.28;;;;;;;;;;4989598;28;20383;-76
2022/08/24 02:34:35;;;;;;;2.80;2.17;;;;;;;;;;4991860;28;20091;-77
2022/08/24 02:37:02;;;;;;;4.63;2.22;;;;;;;;;;4988409;28;20032;-77
2022/08/24 02:39:28;;;;;;;3.35;2.10;;;;;;;;;;4991029;28;20030;-76
2022/08/24 02:41:54;;;;;;;2.78;1.75;;;;;;;;;;4990486;28;20112;-76
2022/08/24 02:44:21;;;;;;;4.53;2.67;;;;;;;;;;4991456;28;20034;-77
2022/08/24 02:46:47;;;;;;;3.13;2.13;;;;;;;;;;4991426;28;20029;-76
2022/08/24 02:49:13;;;;;;;3.15;2.10;;;;;;;;;;4987320;28;20030;-76
2022/08/24 02:51:41;;;;;;;4.07;2.40;;;;;;;;;;4989803;28;20448;-76
2022/08/24 02:54:08;;;;;;;2.75;2.20;;;;;;;;;;4997455;28;20470;-76
2022/08/24 02:56:34;;;;;;;2.97;2.05;;;;;;;;;;4986374;28;20034;-76
2022/08/24 02:59:00;;;;;;;6.50;2.53;;;;;;;;;;4990130;28;20108;-76
2022/08/24 03:01:27;;;;;;;2.90;1.90;;;;;;;;;;4993373;28;20096;-76
2022/08/24 03:03:53;;;;;;;4.07;2.10;;;;;;;;;;4991209;28;20042;-77
2022/08/24 03:06:19;;;;;;;3.78;2.17;;;;;;;;;;4990065;28;20116;-76
2022/08/24 03:08:46;;;;;;;4.68;2.40;;;;;;;;;;4996696;28;20025;-76
2022/08/24 03:11:12;;;;;;;3.20;2.25;;;;;;;;;;4992348;28;20188;-76
2022/08/24 03:13:38;;;;;;;3.80;1.95;;;;;;;;;;4987327;28;20042;-76
2022/08/24 03:16:05;;;;;;;3.20;2.25;;;;;;;;;;4991804;28;20361;-76
2022/08/24 03:18:32;;;;;;;4.00;2.08;;;;;;;;;;4986225;28;20407;-76
2022/08/24 03:20:59;;;;;;;3.28;2.30;;;;;;;;;;4987782;28;20181;-76
2022/08/24 03:23:26;;;;;;;4.20;2.00;;;;;;;;;;4975337;28;20497;-76
2022/08/24 03:25:53;;;;;;;4.13;1.92;;;;;;;;;;4988344;28;20555;-77
2022/08/24 03:28:20;;;;;;;2.55;1.75;;;;;;;;;;4987359;28;20046;-76
2022/08/24 03:30:47;;;;;;;3.10;1.98;;;;;;;;;;4983629;28;20038;-76
2022/08/24 03:33:13;;;;;;;4.38;2.30;;;;;;;;;;4986936;28;20430;-76
2022/08/24 03:35:40;;;;;;;3.72;2.05;;;;;;;;;;4986230;28;20313;-76
2022/08/24 03:38:06;;;;;;;2.70;2.13;;;;;;;;;;4988280;28;20448;-77
2022/08/24 03:40:33;;;;;;;2.95;2.33;;;;;;;;;;4985639;28;20038;-77
2022/08/24 03:43:00;;;;;;;2.20;1.92;;;;;;;;;;4991420;28;20022;-76
2022/08/24 03:45:26;;;;;;;2.53;2.22;;;;;;;;;;4979898;28;20073;-77
2022/08/24 03:47:54;;;;;;;4.30;2.10;;;;;;;;;;4983587;28;20030;-76
2022/08/24 03:50:20;;;;;;;2.95;1.88;;;;;;;;;;4986426;28;20566;-76
2022/08/24 03:52:47;;;;;;;2.75;2.10;;;;;;;;;;4985327;28;20197;-76
2022/08/24 03:55:13;;;;;;;2.72;2.10;;;;;;;;;;4993078;28;20368;-77
2022/08/24 03:57:39;;;;;;;11.50;3.47;;;;;;;;;;4988285;28;20022;-76
2022/08/24 04:00:08;;;;;;;14.82;4.10;;;;;;;;;;4984221;28;20042;-76
2022/08/24 04:02:34;;;;;;;14.43;4.25;;;;;;;;;;4989062;28;20102;-77
2022/08/24 04:05:00;;;;;;;25.50;5.65;;;;;;;;;;4987083;28;20425;-77
2022/08/24 04:07:26;;;;;;;22.25;4.18;;;;;;;;;;4988655;28;20395;-76
2022/08/24 04:09:53;;;;;;;16.73;4.57;;;;;;;;;;4989501;28;20125;-74
2022/08/24 04:12:19;;;;;;;20.98;4.65;;;;;;;;;;4991434;28;20026;-75
2022/08/24 04:14:45;;;;;;;26.88;5.80;;;;;;;;;;4987939;28;20323;-77
2022/08/24 04:17:11;;;;;;;11.25;3.35;;;;;;;;;;4987958;28;20018;-76
2022/08/24 04:19:56;;;;;;;10.00;3.78;;;;;;;;;;4987444;28;20254;-76
2022/08/24 04:22:22;;;;;;;8.60;3.05;;;;;;;;;;4987533;28;20093;-75
2022/08/24 04:24:48;;;;;;;7.15;2.22;;;;;;;;;;4974548;28;20037;-75
2022/08/24 04:27:15;;;;;;;3.28;1.85;;;;;;;;;;4981865;28;20118;-75
2022/08/24 04:29:42;;;;;;;7.20;1.92;;;;;;;;;;4986408;28;20568;-75
2022/08/24 04:32:08;;;;;;;7.07;2.88;;;;;;;;;;4985122;28;20023;-76
2022/08/24 04:34:34;;;;;;;13.80;4.32;;;;;;;;;;4988432;28;20047;-75
2022/08/24 04:37:01;;;;;;;17.05;5.07;;;;;;;;;;4993026;28;20029;-76
2022/08/24 04:39:27;;;;;;;14.13;5.30;;;;;;;;;;4989717;28;20052;-76
2022/08/24 04:41:55;;;;;;;18.17;5.68;;;;;;;;;;4989658;28;20025;-75
2022/08/24 04:44:21;;;;;;;7.65;3.08;;;;;;;;;;4991358;28;20026;-76
2022/08/24 04:46:47;;;;;;;6.90;2.80;;;;;;;;;;4990849;28;20026;-75
2022/08/24 04:49:13;;;;;;;8.10;3.00;;;;;;;;;;4989156;28;20132;-75
2022/08/24 04:51:40;;;;;;;5.25;2.50;;;;;;;;;;4989187;28;20025;-76
2022/08/24 04:54:07;;;;;;;6.43;2.40;;;;;;;;;;4978063;28;20088;-75
2022/08/24 04:56:33;;;;;;;7.90;2.70;;;;;;;;;;4987227;28;20058;-75
2022/08/24 04:59:00;;;;;;;3.05;2.03;;;;;;;;;;4990454;28;20518;-75
2022/08/24 05:01:27;;;;;;;3.28;2.15;;;;;;;;;;4989565;28;20470;-75
2022/08/24 05:03:55;;;;;;;4.22;2.42;;;;;;;;;;4987569;28;20030;-75
2022/08/24 05:06:22;;;;;;;4.63;2.55;;;;;;;;;;4990145;28;20455;-75
2022/08/24 05:08:49;;;;;;;5.55;2.78;;;;;;;;;;4992858;28;20036;-75
2022/08/24 05:11:16;;;;;;;8.23;3.38;;;;;;;;;;4988958;28;20298;-75
2022/08/24 05:13:42;;;;;;;4.93;2.78;;;;;;;;;;4990917;28;20109;-75
2022/08/24 05:16:12;;;;;;;4.32;3.30;;;;;;;;;;4988487;28;20221;-75
2022/08/24 05:18:39;;;;;;;4.60;2.63;;;;;;;;;;4988675;28;20114;-75
2022/08/24 05:21:07;;;;;;;6.60;2.70;;;;;;;;;;4995703;28;20042;-72
2022/08/24 05:23:34;;;;;;;6.10;3.33;;;;;;;;;;4989427;28;20104;-78
2022/08/24 05:26:07;;;;;;;5.82;3.22;;;;;;;;;;4993519;28;20156;-78
2022/08/24 05:28:34;;;;;;;8.40;3.88;;;;;;;;;;4990369;28;20027;-78
2022/08/24 05:31:10;;;;;;;3.22;2.88;;;;;;;;;;4991202;28;20052;-78
2022/08/24 05:33:37;;;;;;;6.20;3.00;;;;;;;;;;4990836;28;20034;-75
2022/08/24 05:36:04;;;;;;;5.43;2.92;;;;;;;;;;4994921;28;20490;-76
2022/08/24 05:38:31;;;;;;;5.70;3.15;;;;;;;;;;4990324;28;20286;-76
2022/08/24 05:40:58;;;;;;;6.40;2.85;;;;;;;;;;4991046;28;20057;-77
2022/08/24 05:43:24;;;;;;;5.90;3.50;;;;;;;;;;4994138;28;20029;-77
2022/08/24 05:45:51;;;;;;;4.88;3.05;;;;;;;;;;4986420;28;20479;-76
2022/08/24 05:48:17;;;;;;;6.47;3.42;;;;;;;;;;4987231;28;20042;-77
2022/08/24 05:50:43;;;;;;;4.88;3.30;;;;;;;;;;4989042;28;20117;-74
2022/08/24 05:53:09;;;;;;;6.50;3.50;;;;;;;;;;4984870;28;20030;-78
2022/08/24 05:55:37;;;;;;;5.50;3.25;;;;;;;;;;4990072;28;20026;-76
2022/08/24 05:58:03;;;;;;;18.85;10.50;;;;;;;;;;4985204;28;20152;-77
2022/08/24 06:00:32;;;;;;;6.80;4.05;;;;;;;;;;4993886;28;20033;-77
2022/08/24 06:02:58;;;;;;;6.10;3.40;;;;;;;;;;4988772;28;20030;-74
2022/08/24 06:05:24;;;;;;;4.90;3.20;;;;;;;;;;4992043;28;20038;-75
2022/08/24 06:07:50;;;;;;;7.20;3.60;;;;;;;;;;4989985;28;20026;-76
2022/08/24 06:10:16;;;;;;;7.75;3.85;;;;;;;;;;4987955;28;20561;-75
2022/08/24 06:12:43;;;;;;;5.80;3.15;;;;;;;;;;4986569;28;20101;-75
2022/08/24 06:15:10;;;;;;;7.40;3.40;;;;;;;;;;4985764;28;20026;-74
2022/08/24 06:17:36;;;;;;;6.68;3.15;;;;;;;;;;4989800;28;20107;-75
2022/08/24 06:20:03;;;;;;;5.22;2.90;;;;;;;;;;4986754;28;20056;-76
2022/08/24 06:22:30;;;;;;;4.03;2.78;;;;;;;;;;4994950;28;20101;-75
2022/08/24 06:27:54;;;;;;;4.22;2.50;;;;;;;;;;4951093;28;20213;-75
2022/08/24 06:30:21;;;;;;;6.30;3.03;;;;;;;;;;4988395;28;20038;-75
2022/08/24 06:32:47;;;;;;;5.72;2.88;;;;;;;;;;4989727;28;20390;-75
2022/08/24 06:35:13;;;;;;;4.85;3.05;;;;;;;;;;4988606;28;20038;-76
2022/08/24 06:37:39;;;;;;;4.88;2.92;;;;;;;;;;4987043;28;20506;-75
2022/08/24 06:40:06;;;;;;;2.97;2.47;;;;;;;;;;4987706;28;20041;-75
2022/08/24 06:42:33;;;;;;;3.92;2.70;;;;;;;;;;4992388;28;20037;-76
2022/08/24 06:44:59;;;;;;;3.78;2.67;;;;;;;;;;4988599;28;20034;-75
2022/08/24 06:47:25;;;;;;;21.98;3.55;;;;;;;;;;4984510;28;20054;-76
2022/08/24 06:49:51;;;;;;;6.30;3.20;;;;;;;;;;4990496;28;20034;-75
2022/08/24 06:52:18;;;;;;;5.30;3.53;;;;;;;;;;4989768;28;20482;-75
2022/08/24 06:54:44;;;;;;;5.38;3.45;;;;;;;;;;4987314;28;20034;-75
2022/08/24 06:57:10;;;;;;;5.10;3.08;;;;;;;;;;4970527;28;20477;-75
2022/08/24 06:59:36;;;;;;;6.20;3.60;;;;;;;;;;4989119;28;20029;-75
2022/08/24 07:02:02;;;;;;;6.93;3.80;;;;;;;;;;4994711;28;20018;-75
2022/08/24 07:04:29;;;;;;;9.07;4.45;;;;;;;;;;4996128;28;20943;-76
2022/08/24 07:06:55;;;;;;;6.97;4.18;;;;;;;;;;4993356;28;20109;-75
2022/08/24 07:09:23;;;;;;;4.95;3.83;;;;;;;;;;4991630;28;20084;-75
2022/08/24 07:11:50;;;;;;;6.10;3.20;;;;;;;;;;4993737;28;20125;-75
2022/08/24 07:14:18;;;;;;;7.82;3.60;;;;;;;;;;4992625;28;20573;-75
2022/08/24 07:16:44;;;;;;;5.30;3.33;;;;;;;;;;4992781;28;20240;-75
2022/08/24 07:19:10;;;;;;;6.70;4.00;;;;;;;;;;4993435;28;20538;-75
2022/08/24 07:21:36;;;;;;;4.03;3.33;;;;;;;;;;4986436;28;20050;-75
2022/08/24 07:24:03;;;;;;;6.82;3.70;;;;;;;;;;4985317;28;20568;-75
2022/08/24 07:26:30;;;;;;;6.55;3.38;;;;;;;;;;4984028;28;20240;-75
2022/08/24 07:29:03;;;;;;;5.13;3.50;;;;;;;;;;4985778;28;20273;-75
2022/08/24 07:31:29;;;;;;;8.23;3.58;;;;;;;;;;4989097;28;20491;-75
2022/08/24 07:33:55;;;;;;;6.20;3.42;;;;;;;;;;4989214;28;20234;-75
2022/08/24 07:36:22;;;;;;;4.88;3.00;;;;;;;;;;4990080;28;20036;-75
2022/08/24 07:38:50;;;;;;;4.40;2.45;;;;;;;;;;4987127;28;20034;-75
2022/08/24 07:41:17;;;;;;;2.80;2.50;;;;;;;;;;4989549;28;20029;-75
2022/08/24 07:43:45;;;;;;;2.35;2.08;;;;;;;;;;4993434;28;20042;-73
2022/08/24 07:46:12;;;;;;;4.05;2.10;;;;;;;;;;4984157;28;20483;-73
2022/08/24 07:48:39;;;;;;;3.58;2.30;;;;;;;;;;4986732;28;20068;-73
2022/08/24 07:51:09;;;;;;;3.40;2.40;;;;;;;;;;4986227;28;20073;-73
2022/08/24 07:53:35;;;;;;;3.80;2.25;;;;;;;;;;4984602;28;20113;-74
2022/08/24 07:56:01;;;;;;;2.38;2.10;;;;;;;;;;4986041;28;20082;-74
2022/08/24 07:58:28;;;;;;;4.65;2.72;;;;;;;;;;4989887;28;20131;-73
2022/08/24 08:00:54;;;;;;;3.45;2.17;;;;;;;;;;4976952;28;20084;-73
2022/08/24 08:03:22;;;;;;;5.22;2.30;;;;;;;;;;4993101;28;20314;-74
2022/08/24 08:05:48;;;;;;;4.05;2.42;;;;;;;;;;4973925;28;20022;-76
2022/08/24 08:08:14;;;;;;;4.20;2.30;;;;;;;;;;4978825;28;20070;-76
2022/08/24 08:10:41;;;;;;;3.58;2.20;;;;;;;;;;4994101;28;20591;-76
2022/08/24 08:13:07;;;;;;;4.13;2.53;;;;;;;;;;4977079;28;20730;-77
2022/08/24 08:15:33;;;;;;;3.33;2.22;;;;;;;;;;4993541;28;20034;-76
2022/08/24 08:18:00;;;;;;;7.32;2.30;;;;;;;;;;4994859;28;20756;-77
2022/08/24 08:20:26;;;;;;;2.78;2.28;;;;;;;;;;4991484;28;20045;-76
2022/08/24 08:25:37;;;;;;;5.22;2.10;;;;;;;;;;4994609;28;20082;-77
2022/08/24 08:28:04;;;;;;;3.40;2.17;;;;;;;;;;4995252;28;20038;-77
2022/08/24 08:30:31;;;;;;;3.13;2.15;;;;;;;;;;4989837;28;20179;-77
2022/08/24 08:32:57;;;;;;;3.05;2.30;;;;;;;;;;4998055;28;20105;-77
2022/08/24 08:35:25;;;;;;;3.53;2.00;;;;;;;;;;4994734;28;20124;-76
2022/08/24 08:37:51;;;;;;;3.05;2.13;;;;;;;;;;4994215;28;20069;-76
2022/08/24 08:40:37;;;;;;;6.00;2.15;;;;;;;;;;4996659;28;20042;-76
2022/08/24 08:43:12;;;;;;;5.10;2.35;;;;;;;;;;4995982;28;20058;-76
2022/08/24 08:46:07;;;;;;;4.32;2.38;;;;;;;;;;4988823;28;20061;-76
2022/08/24 08:48:52;;;;;;;11.55;2.40;;;;;;;;;;4923071;28;20155;-76
2022/08/24 08:51:37;;;;;;;2.92;2.20;;;;;;;;;;4991802;28;20045;-77
2022/08/24 08:54:12;;;;;;;2.55;1.83;;;;;;;;;;4978262;28;20103;-77
2022/08/24 08:56:41;;;;;;;6.68;2.90;;;;;;;;;;4990917;28;20022;-78
2022/08/24 08:59:14;;;;;;;8.07;2.17;;;;;;;;;;4985922;28;20487;-77
2022/08/24 09:01:53;;;;;;;6.05;2.47;;;;;;;;;;4990382;28;20031;-77
2022/08/24 09:04:38;;;;;;;3.75;2.30;;;;;;;;;;4989451;28;20464;-77
2022/08/24 09:07:10;;;;;;;5.90;2.25;;;;;;;;;;4990486;28;20609;-77
2022/08/24 09:09:55;;;;;;;7.97;2.25;;;;;;;;;;4998972;28;20042;-76
2022/08/24 09:12:30;;;;;;;9.20;2.80;;;;;;;;;;4993196;28;20141;-76
2022/08/24 09:15:06;;;;;;;3.67;2.15;;;;;;;;;;4977197;28;20520;-77
2022/08/24 09:17:51;;;;;;;4.70;2.30;;;;;;;;;;4991559;28;20106;-77
2022/08/24 09:20:36;;;;;;;3.35;2.13;;;;;;;;;;4991448;28;20513;-77
2022/08/24 09:23:17;;;;;;;2.83;2.13;;;;;;;;;;4994422;28;20038;-77
2022/08/24 09:26:03;;;;;;;5.20;2.35;;;;;;;;;;4979343;28;20157;-76
2022/08/24 09:28:35;;;;;;;6.40;2.63;;;;;;;;;;4993094;28;20029;-77
2022/08/24 09:31:21;;;;;;;4.57;2.30;;;;;;;;;;4993042;28;20116;-77
2022/08/24 09:34:05;;;;;;;4.25;2.40;;;;;;;;;;4975299;28;20026;-77
2022/08/24 09:36:58;;;;;;;3.70;1.92;;;;;;;;;;4993659;28;20030;-77
2022/08/24 09:39:43;;;;;;;6.20;2.45;;;;;;;;;;4975352;28;20049;-77
2022/08/24 09:42:24;;;;;;;5.00;2.38;;;;;;;;;;4973793;28;20038;-77
2022/08/24 09:45:09;;;;;;;6.90;2.38;;;;;;;;;;4988011;28;20049;-77
2022/08/24 09:47:51;;;;;;;3.42;2.20;;;;;;;;;;4986577;28;20054;-77
2022/08/24 09:50:36;;;;;;;4.07;2.13;;;;;;;;;;4990393;28;20076;-76
2022/08/24 09:53:26;;;;;;;5.25;2.38;;;;;;;;;;4987727;28;20030;-77
2022/08/24 09:55:58;;;;;;;4.68;2.03;;;;;;;;;;4960034;28;20037;-76
2022/08/24 09:58:43;;;;;;;3.55;2.20;;;;;;;;;;4987128;28;20038;-77
2022/08/24 10:01:10;;;;;;;4.20;2.00;;;;;;;;;;4988415;28;20487;-76
2022/08/24 10:03:39;;;;;;;6.07;2.22;;;;;;;;;;4993607;28;20042;-79
2022/08/24 10:06:05;;;;;;;5.10;2.50;;;;;;;;;;5000918;28;20044;-80
2022/08/24 10:08:54;;;;;;;6.88;2.72;;;;;;;;;;4983159;28;20038;-80
2022/08/24 10:11:35;;;;;;;3.55;2.15;;;;;;;;;;4988811;28;20474;-80
2022/08/24 10:14:24;;;;;;;4.22;2.10;;;;;;;;;;4991998;28;20478;-80
2022/08/24 10:16:53;;;;;;;3.45;2.20;;;;;;;;;;4989837;28;20097;-80
2022/08/24 10:19:38;;;;;;;4.22;2.17;;;;;;;;;;4991692;28;20037;-80
2022/08/24 10:22:07;;;;;;;2.75;1.77;;;;;;;;;;4980046;28;20027;-80
2022/08/24 10:24:42;;;;;;;5.40;2.33;;;;;;;;;;4992142;28;20108;-80
2022/08/24 10:27:22;;;;;;;4.45;1.95;;;;;;;;;;4995051;28;20241;-81
2022/08/24 10:30:17;;;;;;;4.25;1.90;;;;;;;;;;4990381;28;20041;-80
2022/08/24 10:32:52;;;;;;;2.35;1.70;;;;;;;;;;4927644;28;20056;-80
2022/08/24 10:35:27;;;;;;;2.30;1.80;;;;;;;;;;4991068;28;20032;-80
2022/08/24 10:40:59;;;;;;;3.00;1.73;;;;;;;;;;4987688;28;20101;-80
2022/08/24 10:43:34;;;;;;;3.67;2.30;;;;;;;;;;4996669;28;20025;-80
2022/08/24 10:46:08;;;;;;;2.28;2.05;;;;;;;;;;4993423;28;20042;-79
2022/08/24 10:48:34;;;;;;;3.08;1.83;;;;;;;;;;4990023;28;20414;-78
2022/08/24 10:51:18;;;;;;;3.40;2.00;;;;;;;;;;4998464;28;20038;-78
2022/08/24 10:53:49;;;;;;;3.05;1.70;;;;;;;;;;4990981;28;20113;-78
2022/08/24 10:56:18;;;;;;;5.00;2.20;;;;;;;;;;4990128;28;20042;-78
2022/08/24 10:58:50;;;;;;;3.72;1.80;;;;;;;;;;4986802;28;20033;-78
2022/08/24 11:01:16;;;;;;;3.95;2.30;;;;;;;;;;4988307;28;20058;-78
2022/08/24 11:03:58;;;;;;;3.40;1.65;;;;;;;;;;4990189;28;20026;-78
2022/08/24 11:06:26;;;;;;;3.72;1.80;;;;;;;;;;4988646;28;20030;-78
2022/08/24 11:09:02;;;;;;;4.68;1.92;;;;;;;;;;4989538;28;20032;-78
2022/08/24 11:11:33;;;;;;;3.03;1.83;;;;;;;;;;4980765;28;20038;-78
2022/08/24 11:14:19;;;;;;;2.85;1.90;;;;;;;;;;4990847;28;20030;-78
2022/08/24 11:16:47;;;;;;;4.38;2.05;;;;;;;;;;4989343;28;20049;-78
2022/08/24 11:19:33;;;;;;;2.13;1.70;;;;;;;;;;4988830;28;20081;-79
2022/08/24 11:22:04;;;;;;;3.33;1.90;;;;;;;;;;4986685;28;20110;-79
2022/08/24 11:24:40;;;;;;;4.90;1.60;;;;;;;;;;4976696;28;20025;-78
2022/08/24 11:27:08;;;;;;;2.65;1.70;;;;;;;;;;4989080;28;20085;-79
2022/08/24 11:29:56;;;;;;;2.03;1.52;;;;;;;;;;4986940;28;20023;-78
2022/08/24 11:32:37;;;;;;;1.75;1.50;;;;;;;;;;4989776;28;20035;-78
2022/08/24 11:35:07;;;;;;;3.78;1.63;;;;;;;;;;4981259;28;20030;-78
2022/08/24 11:37:35;;;;;;;5.43;1.80;;;;;;;;;;4986490;28;20109;-78
2022/08/24 11:40:03;;;;;;;1.92;1.40;;;;;;;;;;4978055;28;20018;-78
2022/08/24 11:42:44;;;;;;;2.20;1.30;;;;;;;;;;4994491;28;20037;-79
2022/08/24 11:45:16;;;;;;;4.35;1.55;;;;;;;;;;4993421;28;20379;-78
2022/08/24 11:48:05;;;;;;;3.45;1.50;;;;;;;;;;4983251;28;20841;-78
2022/08/24 11:50:47;;;;;;;3.72;1.77;;;;;;;;;;4993281;28;20033;-79
2022/08/24 11:53:18;;;;;;;5.38;1.40;;;;;;;;;;4991679;28;20050;-78
2022/08/24 11:56:03;;;;;;;3.95;1.50;;;;;;;;;;4993772;28;20034;-78
2022/08/24 11:58:39;;;;;;;3.25;1.60;;;;;;;;;;4992007;28;20018;-78
2022/08/24 12:01:15;;;;;;;3.75;1.50;;;;;;;;;;4992760;28;20704;-78
2022/08/24 12:03:47;;;;;;;2.83;1.35;;;;;;;;;;4993485;28;20026;-79
2022/08/24 12:06:25;;;;;;;1.77;1.42;;;;;;;;;;4997064;28;20026;-78
2022/08/24 12:08:59;;;;;;;5.53;1.50;;;;;;;;;;4983537;28;20116;-78
2022/08/24 12:11:44;;;;;;;2.72;1.70;;;;;;;;;;4991782;28;20435;-78
2022/08/24 12:14:36;;;;;;;2.35;1.50;;;;;;;;;;4995876;28;20026;-79
2022/08/24 12:17:23;;;;;;;2.50;1.63;;;;;;;;;;4989435;28;20118;-78
2022/08/24 12:19:51;;;;;;;2.95;1.80;;;;;;;;;;4990922;28;20105;-78
2022/08/24 12:22:18;;;;;;;4.03;1.75;;;;;;;;;;4991254;28;20033;-79
2022/08/24 12:24:51;;;;;;;4.78;1.92;;;;;;;;;;4991586;28;20014;-78
2022/08/24 12:27:20;;;;;;;2.95;1.60;;;;;;;;;;4991426;28;20110;-79
2022/08/24 12:29:59;;;;;;;2.90;1.50;;;;;;;;;;4993813;28;20034;-78
2022/08/24 12:32:44;;;;;;;3.58;1.50;;;;;;;;;;4987477;28;20030;-78
2022/08/24 12:35:15;;;;;;;2.40;1.42;;;;;;;;;;4994426;28;20048;-79
2022/08/24 12:37:42;;;;;;;;;;;;;;;;;;4991259;28;20022;-79
2022/08/24 12:40:27;;;;;;;1.80;1.30;;;;;;;;;;4993456;28;20669;-78
2022/08/24 12:43:12;;;;;;;2.47;1.52;;;;;;;;;;4999794;28;20034;-78
2022/08/24 12:45:38;;;;;;;1.50;1.33;;;;;;;;;;4995840;28;20101;-79
2022/08/24 12:48:07;;;;;;;2.15;1.40;;;;;;;;;;4979475;28;20081;-78
2022/08/24 12:50:43;;;;;;;2.08;1.55;;;;;;;;;;4992120;28;20041;-78
2022/08/24 12:53:38;;;;;;;2.20;1.33;;;;;;;;;;4990200;28;20034;-79
2022/08/24 12:56:13;;;;;;;2.60;1.50;;;;;;;;;;4979228;28;20038;-78
2022/08/24 12:58:51;;;;;;;2.97;1.40;;;;;;;;;;4991757;28;20025;-78
2022/08/24 13:01:18;;;;;;;3.08;1.30;;;;;;;;;;4987907;28;20113;-78
2022/08/24 13:03:47;;;;;;;3.88;1.75;;;;;;;;;;4992761;28;20042;-78
2022/08/24 13:06:33;;;;;;;2.33;1.17;;;;;;;;;;4993051;28;20032;-79
2022/08/24 13:09:26;;;;;;;2.42;1.40;;;;;;;;;;4981316;28;20120;-79
2022/08/24 13:11:54;;;;;;;4.70;1.80;;;;;;;;;;4972631;28;20125;-78
2022/08/24 13:14:22;;;;;;;2.55;1.58;;;;;;;;;;4993091;28;20105;-79
2022/08/24 13:16:57;;;;;;;3.78;1.48;;;;;;;;;;4990799;28;20030;-79
2022/08/24 13:19:32;;;;;;;5.28;1.77;;;;;;;;;;4992783;28;20500;-79
2022/08/24 13:22:11;;;;;;;2.90;1.48;;;;;;;;;;4988172;28;20034;-79
2022/08/24 13:24:47;;;;;;;2.05;1.48;;;;;;;;;;4992171;28;20030;-79
2022/08/24 13:27:14;;;;;;;3.42;1.50;;;;;;;;;;4989888;28;20030;-79
2022/08/24 13:29:40;;;;;;;3.15;1.45;;;;;;;;;;4992097;28;20149;-79
2022/08/24 13:32:08;;;;;;;1.42;1.17;;;;;;;;;;4987611;28;20026;-79
2022/08/24 13:34:36;;;;;;;3.25;1.30;;;;;;;;;;4991614;28;20805;-78
2022/08/24 13:37:10;;;;;;;2.25;1.30;;;;;;;;;;4989386;28;20014;-79
2022/08/24 13:39:36;;;;;;;2.85;1.50;;;;;;;;;;4991246;28;20117;-80
2022/08/24 13:42:21;;;;;;;1.33;1.23;;;;;;;;;;4994668;28;20079;-79
2022/08/24 13:44:57;;;;;;;3.10;1.30;;;;;;;;;;4990001;28;20489;-79
2022/08/24 13:47:43;;;;;;;4.65;1.25;;;;;;;;;;4995719;28;20014;-79
2022/08/24 13:50:12;;;;;;;3.15;1.40;;;;;;;;;;4991994;28;20050;-79
2022/08/24 13:52:47;;;;;;;1.63;1.20;;;;;;;;;;4992941;28;20033;-79
2022/08/24 13:55:31;;;;;;;3.53;1.55;;;;;;;;;;4990003;28;20030;-79
2022/08/24 13:58:10;;;;;;;2.53;1.30;;;;;;;;;;4987039;28;20041;-79
2022/08/24 14:00:42;;;;;;;4.60;1.70;;;;;;;;;;4993588;28;20026;-80
2022/08/24 14:03:21;;;;;;;1.60;1.30;;;;;;;;;;4990612;28;20154;-79
2022/08/24 14:05:47;;;;;;;1.80;1.27;;;;;;;;;;4991650;28;20401;-79
2022/08/24 14:08:23;;;;;;;2.10;1.48;;;;;;;;;;4988320;28;20493;-79
2022/08/24 14:10:49;;;;;;;5.53;1.60;;;;;;;;;;4992842;28;20042;-79
2022/08/24 14:13:15;;;;;;;1.73;1.42;;;;;;;;;;4999329;28;20033;-78
2022/08/24 14:19:04;;;;;;;6.68;1.80;;;;;;;;;;4990660;28;20104;-77
2022/08/24 14:21:36;;;;;;;3.83;1.52;;;;;;;;;;4989949;28;20625;-79
2022/08/24 14:24:08;;;;;;;2.08;1.55;;;;;;;;;;4990551;28;20030;-79
2022/08/24 14:26:38;;;;;;;3.25;1.30;;;;;;;;;;4992428;28;20551;-78
2022/08/24 14:29:17;;;;;;;2.42;1.42;;;;;;;;;;4989965;28;20030;-78
2022/08/24 14:31:53;;;;;;;2.53;1.50;;;;;;;;;;4988493;28;20034;-76
2022/08/24 14:34:33;;;;;;;17.40;2.22;;;;;;;;;;4992819;28;20398;-77
2022/08/24 14:37:09;;;;;;;3.22;1.65;;;;;;;;;;4992326;28;20033;-75
2022/08/24 14:39:57;;;;;;;5.57;1.65;;;;;;;;;;4990470;28;20037;-74
2022/08/24 14:42:32;;;;;;;2.92;1.48;;;;;;;;;;4995822;28;20034;-74
2022/08/24 14:45:01;;;;;;;3.85;1.40;;;;;;;;;;4991530;28;20056;-74
2022/08/24 14:47:31;;;;;;;7.20;1.65;;;;;;;;;;4992695;28;20029;-73
2022/08/24 14:50:06;;;;;;;2.60;1.70;;;;;;;;;;4989719;28;20030;-73
2022/08/24 14:52:43;;;;;;;3.22;1.73;;;;;;;;;;4994149;28;20026;-74
2022/08/24 14:55:16;;;;;;;1.45;1.20;;;;;;;;;;4992797;28;20034;-73
2022/08/24 14:57:45;;;;;;;2.17;1.50;;;;;;;;;;4989602;28;20522;-74
2022/08/24 15:00:14;;;;;;;3.03;1.67;;;;;;;;;;4996106;28;20663;-73
2022/08/24 15:02:57;;;;;;;3.33;1.58;;;;;;;;;;4993645;28;20029;-73
2022/08/24 15:05:35;;;;;;;2.63;1.50;;;;;;;;;;4988287;28;20025;-74
2022/08/24 15:08:04;;;;;;;4.40;1.70;;;;;;;;;;4990060;28;20026;-73
2022/08/24 15:10:38;;;;;;;1.77;1.55;;;;;;;;;;4988469;28;20053;-73
2022/08/24 15:13:12;;;;;;;3.70;1.50;;;;;;;;;;4989783;28;20887;-73
2022/08/24 15:15:44;;;;;;;4.55;1.65;;;;;;;;;;4993586;28;20053;-74
2022/08/24 15:18:16;;;;;;;2.15;1.27;;;;;;;;;;4987771;28;20100;-74
2022/08/24 15:20:55;;;;;;;2.88;1.90;;;;;;;;;;4993891;28;20045;-73